• Join FlightAware (Why Join?)
  • Login
  • US Flag 
01:06PM EDT


 

Airport Tracker/Info


-or-


 

Live Flight TrackerFlight Track Log ✈ SLI2200 ✈ 14-May-2012 ✈ MMMY / MTY - MMCL / CUL

Flight Track Log - Related Links

Times and Time Zones

All times are in EDT time to prevent confusion due to time zone crossing. See the SLI2200 flight status page for this flight to view local times or setup timezone preferences in your user account.

Time Position Orientation Groundspeed Altitude Reporting Facility
EDT Latitude Longitude Course Direction KTS MPH feet Rate Location/Type
09:49AM 25.7284 -100.5496 263° West  Level Estimated
09:50AM 25.7171 -100.6472 263° West  Level Estimated
09:51AM 25.7059 -100.7448 263° West  Level Estimated
09:52AM 25.6945 -100.8424 263° West  Level Estimated
09:53AM 25.6831 -100.9399 263° West  Level Estimated
09:54AM 25.6716 -101.0374 263° West  Level Estimated
09:55AM 25.6600 -101.1349 262° West  Level Estimated
09:56AM 25.6484 -101.2324 262° West  Level Estimated
09:57AM 25.6367 -101.3299 262° West  Level Estimated
09:58AM 25.6250 -101.4274 262° West  Level Estimated
09:59AM 25.6131 -101.5248 262° West  Level Estimated
10:00AM 25.6012 -101.6222 262° West  Level Estimated
10:01AM 25.5893 -101.7196 262° West  Level Estimated
10:02AM 25.5773 -101.8170 262° West  Level Estimated
10:03AM 25.5652 -101.9144 262° West  Level Estimated
10:04AM 25.5531 -102.0117 262° West  Level Estimated
10:05AM 25.5409 -102.1090 262° West  Level Estimated
10:06AM 25.5286 -102.2063 262° West  Level Estimated
10:07AM 25.5163 -102.3036 262° West  Level Estimated
10:08AM 25.5039 -102.4009 262° West  Level Estimated
10:09AM 25.4914 -102.4981 262° West  Level Estimated
10:10AM 25.4789 -102.5953 262° West  Level Estimated
10:11AM 25.4663 -102.6925 262° West  Level Estimated
10:12AM 25.4536 -102.7897 262° West  Level Estimated
10:13AM 25.4409 -102.8869 262° West  Level Estimated
10:14AM 25.4281 -102.9840 262° West  Level Estimated
10:15AM 25.4153 -103.0811 262° West  Level Estimated
10:16AM 25.4024 -103.1782 262° West  Level Estimated
10:17AM 25.3894 -103.2753 262° West  Level Estimated
10:18AM 25.3764 -103.3724 262° West  Level Estimated
10:19AM 25.3633 -103.4694 261° West  Level Estimated
10:20AM 25.3501 -103.5664 261° West  Level Estimated
10:21AM 25.3369 -103.6634 261° West  Level Estimated
10:22AM 25.3236 -103.7604 261° West  Level Estimated
10:23AM 25.3102 -103.8573 261° West  Level Estimated
10:24AM 25.2968 -103.9542 261° West  Level Estimated
10:25AM 25.2833 -104.0511 261° West  Level Estimated
10:26AM 25.2698 -104.1480 261° West  Level Estimated
10:27AM 25.2562 -104.2449 261° West  Level Estimated
10:28AM 25.2425 -104.3417 261° West  Level Estimated
10:29AM 25.2288 -104.4385 261° West  Level Estimated
10:30AM 25.2150 -104.5353 261° West  Level Estimated
10:31AM 25.2011 -104.6321 261° West  Level Estimated
10:32AM 25.1872 -104.7289 261° West  Level Estimated
10:33AM 25.1732 -104.8256 261° West  Level Estimated
10:34AM 25.1592 -104.9223 261° West  Level Estimated
10:35AM 25.1451 -105.0190 261° West  Level Estimated
10:36AM 25.1309 -105.1156 261° West  Level Estimated
10:37AM 25.1167 -105.2123 261° West  Level Estimated
10:38AM 25.1024 -105.3089 261° West  Level Estimated
10:39AM 25.0880 -105.4055 261° West  Level Estimated
10:40AM 25.0736 -105.5021 261° West  Level Estimated
10:41AM 25.0591 -105.5986 261° West  Level Estimated
10:42AM 25.0446 -105.6952 261° West  Level Estimated
10:43AM 25.0299 -105.7917 260° West  Level Estimated
10:44AM 25.0153 -105.8881 260° West  Level Estimated
10:45AM 25.0005 -105.9846 260° West  Level Estimated
10:46AM 24.9857 -106.0810 260° West  Level Estimated
10:47AM 24.9709 -106.1774 260° West  Level Estimated
10:48AM 24.9560 -106.2738 260° West  Level Estimated
10:49AM 24.9410 -106.3702 260° West  Level Estimated
10:50AM 24.9259 -106.4665 260° West  Level Estimated
10:51AM 24.9108 -106.5629 260° West  Level Estimated
10:52AM 24.8957 -106.6591 260° West  Level Estimated
10:53AM 24.8804 -106.7554 260° West  Level Estimated
10:54AM 24.8651 -106.8517 260° West  Level Estimated
10:55AM 24.8498 -106.9479 260° West  Level Estimated
10:56AM 24.8344 -107.0441 260° West  Level Estimated
10:57AM 24.8189 -107.1403 260° West  Level Estimated
10:58AM 24.8033 -107.2364 260° West  Level Estimated
10:59AM 24.7877 -107.3325 260° West  Level Estimated
11:00AM 24.7721 -107.4286 260° West  Level Estimated
11:01AM 24.7564 -107.5247 80° East  Level Estimated
11:02AM 24.7721 -107.4286 260° West  Level Estimated
11:03AM 24.7564 -107.5247 80° East  Level Estimated
11:04AM 24.7721 -107.4286 260° West  Level Estimated
11:05AM 24.7564 -107.5247 80° East  Level Estimated
11:06AM 24.7721 -107.4286 260° West  Level Estimated
11:07AM 24.7564 -107.5247 80° East  Level Estimated
11:08AM 24.7721 -107.4286 260° West  Level Estimated
11:09AM 24.7564 -107.5247 80° East  Level Estimated
11:10AM 24.7721 -107.4286 80° East  Level Estimated